createdAt,value
2018-05-24T00:00:11.065Z,39.45
2018-05-24T00:05:13.154Z,39.95
2018-05-24T00:10:14.475Z,39.95
2018-05-24T00:15:15.788Z,40.20
2018-05-24T00:20:17.147Z,40.54
2018-05-24T00:25:18.463Z,40.78
2018-05-24T00:30:19.774Z,41.16
2018-05-24T00:35:21.082Z,41.72
2018-05-24T00:40:22.421Z,41.61
2018-05-24T00:45:23.729Z,41.89
2018-05-24T00:50:25.047Z,42.19
2018-05-24T00:55:45.268Z,42.67
2018-05-24T01:00:46.590Z,42.83
2018-05-24T01:05:48.644Z,43.12
2018-05-24T01:10:50.634Z,43.27
2018-05-24T01:15:52.076Z,43.47
2018-05-24T01:20:53.290Z,43.62
2018-05-24T01:25:54.594Z,43.52
2018-05-24T01:30:55.916Z,44.14
2018-05-24T01:35:57.201Z,44.16
2018-05-24T01:40:58.529Z,44.25
2018-05-24T01:46:00.566Z,44.64
2018-05-24T01:51:01.902Z,45.32
2018-05-24T01:56:03.214Z,45.79
2018-05-24T02:01:05.251Z,46.64
2018-05-24T02:06:06.554Z,46.78
2018-05-24T02:11:07.845Z,47.50
2018-05-24T02:16:09.130Z,47.48
2018-05-24T02:21:10.433Z,47.18
2018-05-24T02:26:11.737Z,47.93
2018-05-24T02:31:13.039Z,49.02
2018-05-24T02:36:14.362Z,48.87
2018-05-24T02:41:15.710Z,49.27
2018-05-24T02:46:17.004Z,49.36
2018-05-24T02:51:18.341Z,49.45
2018-05-24T02:56:19.659Z,48.78
2018-05-24T03:01:22.176Z,49.33
2018-05-24T03:06:23.579Z,49.82
2018-05-24T03:11:24.906Z,49.86
2018-05-24T03:16:26.971Z,49.51
2018-05-24T03:21:28.688Z,49.83
2018-05-24T03:26:31.006Z,49.69
2018-05-24T03:31:32.548Z,49.79
2018-05-24T03:36:33.858Z,50.40
2018-05-24T03:41:35.158Z,50.15
2018-05-24T03:46:36.478Z,50.44
2018-05-24T03:51:38.519Z,50.20
2018-05-24T03:56:39.830Z,50.69
2018-05-24T04:01:59.796Z,50.26
2018-05-24T04:07:01.102Z,50.75
2018-05-24T04:12:02.543Z,51.27
2018-05-24T04:17:04.611Z,51.44
2018-05-24T04:22:05.964Z,51.65
2018-05-24T04:27:12.161Z,51.85
2018-05-24T04:32:14.019Z,51.36
2018-05-24T04:37:15.836Z,50.46
2018-05-24T04:42:17.293Z,50.42
2018-05-24T04:47:18.611Z,50.19
2018-05-24T04:52:20.085Z,50.35
2018-05-24T04:57:21.406Z,50.25
2018-05-24T05:02:22.828Z,50.07
2018-05-24T05:07:24.154Z,50.43
2018-05-24T05:12:25.464Z,50.43
2018-05-24T05:17:26.794Z,50.70
2018-05-24T05:22:28.088Z,50.15
2018-05-24T05:27:29.620Z,49.62
2018-05-24T05:32:30.946Z,49.04
2018-05-24T05:37:32.312Z,48.47
2018-05-24T05:42:34.378Z,48.31
2018-05-24T05:47:35.679Z,48.09
2018-05-24T05:52:37.733Z,48.63
2018-05-24T05:57:39.021Z,49.14
2018-05-24T06:02:40.372Z,49.70
2018-05-24T06:07:41.685Z,48.91
2018-05-24T06:12:42.993Z,48.18
2018-05-24T06:17:44.311Z,48.80
2018-05-24T06:22:46.338Z,49.36
2018-05-24T06:27:48.365Z,49.65
2018-05-24T06:32:49.678Z,48.89
2018-05-24T06:37:50.970Z,48.06
2018-05-24T06:42:52.280Z,47.98
2018-05-24T06:47:54.346Z,47.80
2018-05-24T06:52:55.657Z,49.50
2018-05-24T06:57:56.959Z,49.70
2018-05-24T07:02:58.253Z,49.40
2018-05-24T07:07:59.614Z,48.51
2018-05-24T07:13:00.925Z,48.57
2018-05-24T07:18:02.386Z,47.86
2018-05-24T07:23:03.945Z,47.87
2018-05-24T07:28:05.314Z,46.88
2018-05-24T07:33:06.685Z,46.74
2018-05-24T07:38:08.066Z,47.07
2018-05-24T07:43:09.421Z,46.03
2018-05-24T07:48:10.770Z,46.37
2018-05-24T07:53:12.090Z,45.92
2018-05-24T07:58:13.428Z,45.00
2018-05-24T08:03:14.762Z,45.06
2018-05-24T08:08:16.086Z,45.01
2018-05-24T08:13:17.377Z,45.51
2018-05-24T08:18:18.665Z,44.21
2018-05-24T08:23:19.975Z,43.76
2018-05-24T08:28:21.307Z,43.56
2018-05-24T08:33:23.508Z,42.12
2018-05-24T08:38:24.871Z,42.21
2018-05-24T08:43:26.213Z,42.41
2018-05-24T08:48:27.522Z,42.05
2018-05-24T08:53:28.892Z,42.64
2018-05-24T08:58:30.152Z,42.33
2018-05-24T09:03:32.205Z,42.73
2018-05-24T09:08:33.501Z,42.31
2018-05-24T09:13:34.832Z,41.56
2018-05-24T09:18:36.860Z,41.77
2018-05-24T09:23:38.419Z,40.82
2018-05-24T09:28:39.861Z,40.35
2018-05-24T09:33:41.865Z,40.99
2018-05-24T09:38:43.332Z,41.27
2018-05-24T09:43:45.353Z,40.27
2018-05-24T09:48:46.790Z,39.23
2018-05-24T09:53:48.297Z,38.64
2018-05-24T09:58:50.417Z,37.62
2018-05-24T10:03:52.628Z,37.23
2018-05-24T10:08:54.836Z,36.49
2018-05-24T10:13:56.169Z,35.65
2018-05-24T10:18:57.477Z,34.76
2018-05-24T10:23:58.781Z,35.06
2018-05-24T10:29:00.088Z,34.09
2018-05-24T10:34:01.468Z,34.49
2018-05-24T10:39:02.843Z,34.34
2018-05-24T10:44:04.181Z,34.89
2018-05-24T10:49:05.484Z,35.67
2018-05-24T10:54:06.843Z,35.51
2018-05-24T10:59:08.494Z,35.20
2018-05-24T11:04:09.825Z,35.53
2018-05-24T11:09:11.164Z,35.46
2018-05-24T11:14:12.476Z,35.57
2018-05-24T11:19:13.815Z,34.41
2018-05-24T11:24:15.124Z,34.37
2018-05-24T11:29:16.462Z,33.66
2018-05-24T11:34:17.762Z,33.74
2018-05-24T11:39:19.809Z,33.95
2018-05-24T11:44:21.109Z,33.47
2018-05-24T11:49:22.461Z,33.25
2018-05-24T11:54:31.477Z,32.79
2018-05-24T11:59:32.785Z,32.48
2018-05-24T12:04:34.070Z,32.73
2018-05-24T12:09:35.369Z,33.75
2018-05-24T12:14:36.705Z,33.66
2018-05-24T12:19:38.091Z,33.90
2018-05-24T12:24:39.442Z,34.14
2018-05-24T12:29:40.800Z,33.92
2018-05-24T12:34:42.122Z,34.13
2018-05-24T12:39:43.441Z,34.68
2018-05-24T12:44:44.794Z,35.03
2018-05-24T12:49:46.138Z,35.11
2018-05-24T12:54:47.517Z,35.17
2018-05-24T12:59:48.821Z,35.72
2018-05-24T13:04:50.174Z,36.54
2018-05-24T13:09:52.289Z,38.38
2018-05-24T13:14:53.624Z,40.09
2018-05-24T13:19:54.927Z,40.92
2018-05-24T13:24:56.236Z,40.50
2018-05-24T13:29:57.567Z,40.48
2018-05-24T13:34:58.869Z,40.99
2018-05-24T13:40:00.179Z,41.21
2018-05-24T13:45:01.592Z,40.50
2018-05-24T13:50:02.945Z,39.91
2018-05-24T13:55:04.252Z,39.42
2018-05-24T14:00:05.673Z,39.55
2018-05-24T14:05:07.728Z,39.70
2018-05-24T14:10:09.167Z,39.59
2018-05-24T14:15:10.530Z,38.80
2018-05-24T14:20:12.908Z,39.15
2018-05-24T14:25:14.241Z,39.14
2018-05-24T14:30:16.121Z,38.57
2018-05-24T14:35:17.466Z,37.83
2018-05-24T14:40:19.508Z,37.58
2018-05-24T14:45:20.836Z,37.07
2018-05-24T14:50:22.165Z,36.90
2018-05-24T14:55:23.474Z,36.13
2018-05-24T15:00:24.777Z,36.38
2018-05-24T15:05:26.120Z,36.96
2018-05-24T15:10:27.385Z,36.81
2018-05-24T15:15:28.689Z,36.67
2018-05-24T15:20:30.725Z,36.70
2018-05-24T15:25:32.070Z,36.29
2018-05-24T15:30:33.383Z,36.29
2018-05-24T15:35:35.452Z,36.67
2018-05-24T15:40:36.831Z,37.83
2018-05-24T15:45:38.174Z,39.13
2018-05-24T15:50:39.514Z,39.50
2018-05-24T15:55:40.862Z,39.90
2018-05-24T16:00:42.217Z,40.23
2018-05-24T16:05:44.301Z,40.49
2018-05-24T16:10:45.633Z,40.27
2018-05-24T16:15:47.689Z,39.97
2018-05-24T16:20:48.993Z,39.62
2018-05-24T16:25:50.298Z,39.16
2018-05-24T16:30:51.641Z,39.60
2018-05-24T16:35:53.133Z,39.90
2018-05-24T16:40:54.479Z,40.31
2018-05-24T16:45:56.617Z,40.54
2018-05-24T16:50:57.905Z,40.95
2018-05-24T16:55:59.221Z,41.45
2018-05-24T17:01:00.559Z,41.69
2018-05-24T17:06:01.983Z,41.96
2018-05-24T17:11:03.354Z,42.48
2018-05-24T17:16:04.710Z,42.74
2018-05-24T17:21:06.073Z,43.41
2018-05-24T17:26:07.414Z,43.73
2018-05-24T17:31:08.731Z,43.62
2018-05-24T17:36:10.080Z,43.42
2018-05-24T17:41:13.014Z,43.29
2018-05-24T17:46:14.350Z,43.39
2018-05-24T17:51:15.673Z,43.91
2018-05-24T17:56:17.006Z,43.50
2018-05-24T18:01:18.402Z,43.61
2018-05-24T18:06:19.780Z,44.01
2018-05-24T18:11:21.101Z,45.67
2018-05-24T18:16:22.442Z,46.97
2018-05-24T18:21:23.777Z,47.70
2018-05-24T18:26:25.087Z,47.16
2018-05-24T18:31:26.460Z,46.95
2018-05-24T18:36:27.822Z,47.03
2018-05-24T18:41:29.113Z,47.05
2018-05-24T18:46:30.470Z,46.98
2018-05-24T18:51:32.504Z,47.49
2018-05-24T18:56:34.125Z,48.37
2018-05-24T19:01:35.457Z,47.99
2018-05-24T19:06:36.770Z,48.67
2018-05-24T19:11:38.192Z,48.60
2018-05-24T19:16:39.497Z,48.47
2018-05-24T19:21:40.837Z,48.47
2018-05-24T19:26:42.176Z,48.39
2018-05-24T19:31:43.529Z,49.18
2018-05-24T19:36:44.844Z,48.92
2018-05-24T19:41:46.145Z,49.12
2018-05-24T19:46:47.469Z,49.72
2018-05-24T19:51:49.603Z,49.82
2018-05-24T19:56:50.949Z,50.17
2018-05-24T20:01:52.300Z,50.46
2018-05-24T20:06:53.637Z,50.43
2018-05-24T20:11:54.996Z,50.82
2018-05-24T20:16:56.328Z,52.25
2018-05-24T20:21:58.402Z,53.01
2018-05-24T20:26:59.918Z,53.37
2018-05-24T20:32:01.458Z,53.41
2018-05-24T20:37:02.778Z,53.42
2018-05-24T20:42:04.134Z,52.79
2018-05-24T20:47:06.393Z,52.58
2018-05-24T20:52:07.765Z,52.35
2018-05-24T20:57:09.094Z,53.30
2018-05-24T21:02:11.159Z,53.87
2018-05-24T21:07:12.492Z,54.37
2018-05-24T21:12:14.557Z,54.15
2018-05-24T21:17:15.869Z,54.50
2018-05-24T21:22:17.209Z,56.01
2018-05-24T21:27:18.517Z,56.49
2018-05-24T21:32:19.833Z,57.53
2018-05-24T21:37:21.231Z,57.75
2018-05-24T21:42:23.289Z,57.26
2018-05-24T21:47:24.602Z,57.35
2018-05-24T21:52:25.955Z,57.34
2018-05-24T21:57:27.284Z,56.75
2018-05-24T22:02:28.614Z,56.01
2018-05-24T22:07:30.738Z,56.56
2018-05-24T22:12:32.017Z,57.17
2018-05-24T22:17:33.336Z,57.69
2018-05-24T22:22:34.642Z,57.66
2018-05-24T22:27:35.955Z,57.64
2018-05-24T22:32:37.266Z,58.24
2018-05-24T22:37:39.320Z,58.59
2018-05-24T22:42:40.695Z,58.54
2018-05-24T22:47:41.977Z,58.59
2018-05-24T22:52:43.304Z,58.40
2018-05-24T22:57:44.622Z,58.05
2018-05-24T23:02:46.690Z,58.38
2018-05-24T23:07:48.053Z,58.83
2018-05-24T23:12:49.374Z,58.84
2018-05-24T23:17:50.681Z,58.01
2018-05-24T23:22:51.993Z,54.88
2018-05-24T23:27:54.038Z,52.46
2018-05-24T23:32:55.373Z,51.49
2018-05-24T23:37:56.675Z,49.39
2018-05-24T23:42:58.750Z,47.58
2018-05-24T23:48:00.071Z,46.90
2018-05-24T23:53:02.108Z,46.63
2018-05-24T23:58:03.420Z,46.36
